עמוד ראשי
METAR-TAF:

METAR-TAF

שדות תעופה :

Puerto Plata, הרפובליקה הדומיניקאנית

קו רוחב: 19-45N, קו אורך: 070-33W, גובה: 15מטר

תצפית מזג אוויר נוכחית

הדו"ח נערך לפני 41דקות, בשעה 16:00 UTC
רוח 12קשר מכיוון מזרח
טמפרטורת 32 צלסיוס
לחות 75%
לחץ 1017 hPa
ראות 10 קילומטר או יותר
עננים בינוניים בגובה 1800רגל
עננים פזורים בגובה 30000רגל

METAR: MDPP 141600Z 09012KT 9999 BKN018 SCT300 32/27 Q1017

זמן: 12:41 (16:41 UTC)

תחזית

הדו"ח נערך לפני 6 שעות ו 41דקות, בשעה 10:00 UTC
תחזית בתוקף מ 14 ב 12 UTC עד 15 ב 12 UTC
רוח קשר מכיוון צפון
ראות 10 קילומטר או יותר
מעט עננים בגובה 1600רגל , קומולונימבוס.
עננים בינוניים בגובה 1700רגל
הסתברות 40%
14 ב 12 UTC עד 14 ב 18 UTC
מעט עננים בגובה 1400רגל , קומולונימבוס.
עננים בינוניים בגובה 1600רגל
סופת רעמים, גשם קל
יעשה מ
14 ב 13 UTC עד 14 ב 15 UTC
רוח 10קשר מכיוון מזרח/צפון-מזרח

TAF: MDPP 141000Z 1412/1512 00000KT 9999 FEW016CB BKN017 PROB40 1412/1418 -TSRA FEW014CB BKN016 BECMG 1413/1415 06010KT

תצפיות ותחזיות מזג אוויר לגבי יותר מ- 4,000 שדות תעופה ברחבי העולם. דוחות METAR ו- TAF.

התחנות הזמינות מסומנות בנקודות צהובות ואדומות על גבי המפה.

העבר את העכבר לנקודה הצבעונית על מנת לראות את שם התחנה.

לאחר מכן, לחץ כדי לראות את תוכן ואת תחזיות מזג האוויר.

כדי לשנות את המפה: לחץ על הכפתורים הירוקים עם הפלוס השחור כדי להתקרב; על הכפתור הירוק עם המקף כדי להתרחק; או בחיצים הירוקים למפות סמוכות.


METAR-TAF: